createdAt,value
2019-01-19T00:02:10.906Z,-0.50
2019-01-19T00:05:39.155Z,-0.40
2019-01-19T00:08:51.425Z,-0.50
2019-01-19T00:12:07.760Z,-0.50
2019-01-19T00:14:50.587Z,-0.40
2019-01-19T00:18:09.343Z,-0.40
2019-01-19T00:21:13.738Z,-0.40
2019-01-19T00:24:38.910Z,-0.40
2019-01-19T00:30:43.879Z,-0.40
2019-01-19T00:34:09.683Z,-0.40
2019-01-19T00:37:08.192Z,-0.30
2019-01-19T00:43:28.108Z,-0.30
2019-01-19T00:46:42.014Z,-0.40
2019-01-19T00:49:49.389Z,-0.30
2019-01-19T00:52:33.951Z,-0.30
2019-01-19T00:55:49.333Z,-0.30
2019-01-19T00:58:48.291Z,-0.30
2019-01-19T01:05:10.539Z,-0.40
2019-01-19T01:08:15.807Z,-0.40
2019-01-19T01:11:25.381Z,-0.50
2019-01-19T01:14:38.565Z,-0.50
2019-01-19T01:17:15.388Z,-0.60
2019-01-19T01:20:30.661Z,-0.50
2019-01-19T01:23:29.905Z,-0.60
2019-01-19T01:26:43.404Z,-0.60
2019-01-19T01:32:48.366Z,-0.70
2019-01-19T01:35:39.618Z,-0.70
2019-01-19T01:38:55.765Z,-0.70
2019-01-19T01:41:48.765Z,-0.70
2019-01-19T01:44:45.878Z,-0.70
2019-01-19T01:47:51.209Z,-0.60
2019-01-19T01:50:34.063Z,-0.60
2019-01-19T01:53:53.675Z,-0.60
2019-01-19T01:56:22.900Z,-0.60
2019-01-19T01:59:31.634Z,-0.60
2019-01-19T02:02:32.322Z,-0.60
2019-01-19T02:05:40.064Z,-0.50
2019-01-19T02:08:32.033Z,-0.50
2019-01-19T02:11:26.408Z,-0.50
2019-01-19T02:14:46.101Z,-0.40
2019-01-19T02:17:54.845Z,-0.40
2019-01-19T02:20:37.765Z,-0.40
2019-01-19T02:23:47.281Z,-0.40
2019-01-19T02:26:56.272Z,-0.40
2019-01-19T02:30:15.592Z,-0.40
2019-01-19T02:33:31.763Z,-0.40
2019-01-19T02:36:18.208Z,-0.40
2019-01-19T02:39:33.411Z,-0.40
2019-01-19T02:42:40.795Z,-0.40
2019-01-19T02:45:52.280Z,-0.40
2019-01-19T02:48:57.220Z,-0.30
2019-01-19T02:52:13.790Z,-0.40
2019-01-19T02:54:59.807Z,-0.30
2019-01-19T02:58:25.216Z,-0.30
2019-01-19T03:01:19.314Z,-0.40
2019-01-19T03:04:23.662Z,-0.40
2019-01-19T03:07:24.370Z,-0.40
2019-01-19T03:10:18.957Z,-0.40
2019-01-19T03:13:15.143Z,-0.40
2019-01-19T03:16:30.030Z,-0.40
2019-01-19T03:19:34.862Z,-0.40
2019-01-19T03:22:54.410Z,-0.30
2019-01-19T03:25:52.751Z,-0.30
2019-01-19T03:28:47.332Z,-0.30
2019-01-19T03:31:58.981Z,-0.30
2019-01-19T03:34:54.684Z,-0.30
2019-01-19T03:37:43.644Z,-0.30
2019-01-19T03:41:08.875Z,-0.30
2019-01-19T03:44:21.910Z,-0.30
2019-01-19T03:47:23.869Z,-0.40
2019-01-19T03:51:01.627Z,-0.40
2019-01-19T03:54:03.046Z,-0.40
2019-01-19T03:57:11.921Z,-0.40
2019-01-19T04:00:12.138Z,-0.40
2019-01-19T04:03:26.792Z,-0.40
2019-01-19T04:06:52.335Z,-0.40
2019-01-19T04:09:48.761Z,-0.40
2019-01-19T04:12:36.007Z,-0.40
2019-01-19T04:15:30.713Z,-0.40
2019-01-19T04:18:20.897Z,-0.50
2019-01-19T04:21:44.347Z,-0.50
2019-01-19T04:24:36.413Z,-0.50
2019-01-19T04:27:05.811Z,-0.50
2019-01-19T04:29:34.677Z,-0.50
2019-01-19T04:32:03.940Z,-0.50
2019-01-19T04:34:33.037Z,-0.50
2019-01-19T04:37:08.972Z,-0.50
2019-01-19T04:39:37.966Z,-0.50
2019-01-19T04:42:07.369Z,-0.50
2019-01-19T04:44:36.566Z,-0.60
2019-01-19T04:47:05.540Z,-0.60
2019-01-19T04:49:35.928Z,-0.60
2019-01-19T04:52:04.893Z,-0.60
2019-01-19T04:54:34.343Z,-0.60
2019-01-19T04:57:06.859Z,-0.70
2019-01-19T04:59:38.145Z,-0.70
2019-01-19T05:02:07.139Z,-0.70
2019-01-19T05:04:36.031Z,-0.70
2019-01-19T05:07:06.130Z,-0.70
2019-01-19T05:09:35.350Z,-0.70
2019-01-19T05:12:04.352Z,-0.70
2019-01-19T05:14:33.236Z,-0.70
2019-01-19T05:19:38.463Z,-0.70
2019-01-19T05:22:08.170Z,-0.80
2019-01-19T05:24:37.076Z,-0.80
2019-01-19T05:27:07.916Z,-0.80
2019-01-19T05:32:22.720Z,-0.90
2019-01-19T05:34:52.326Z,-0.80
2019-01-19T05:37:21.518Z,-0.90
2019-01-19T05:39:52.417Z,-1.00
2019-01-19T05:42:21.402Z,-1.00
2019-01-19T05:44:50.625Z,-1.00
2019-01-19T05:47:19.604Z,-1.00
2019-01-19T05:49:48.600Z,-1.00
2019-01-19T05:52:17.479Z,-1.00
2019-01-19T05:54:46.759Z,-1.00
2019-01-19T05:57:15.917Z,-1.10
2019-01-19T05:59:47.022Z,-1.10
2019-01-19T06:02:16.084Z,-1.10
2019-01-19T06:04:44.973Z,-1.20
2019-01-19T06:07:13.895Z,-1.20
2019-01-19T06:09:42.863Z,-1.30
2019-01-19T06:12:11.809Z,-1.30
2019-01-19T06:14:40.958Z,-1.30
2019-01-19T06:17:10.159Z,-1.30
2019-01-19T06:19:39.907Z,-1.40
2019-01-19T06:22:09.493Z,-1.40
2019-01-19T06:24:38.474Z,-1.40
2019-01-19T06:27:07.650Z,-1.40
2019-01-19T06:29:36.942Z,-1.40
2019-01-19T06:32:05.848Z,-1.50
2019-01-19T06:34:34.769Z,-1.50
2019-01-19T06:37:04.429Z,-1.60
2019-01-19T06:39:33.891Z,-1.60
2019-01-19T06:42:02.882Z,-1.60
2019-01-19T06:44:32.459Z,-1.60
2019-01-19T06:47:01.852Z,-1.70
2019-01-19T06:49:30.836Z,-1.70
2019-01-19T06:52:00.463Z,-1.70
2019-01-19T06:54:30.097Z,-1.70
2019-01-19T06:56:59.370Z,-1.70
2019-01-19T06:59:30.874Z,-1.70
2019-01-19T07:01:59.871Z,-1.70
2019-01-19T07:04:32.144Z,-1.60
2019-01-19T07:07:04.623Z,-1.70
2019-01-19T07:09:33.553Z,-1.70
2019-01-19T07:12:02.630Z,-1.70
2019-01-19T07:14:32.731Z,-1.70
2019-01-19T07:17:07.097Z,-1.80
2019-01-19T07:19:36.845Z,-1.80
2019-01-19T07:22:09.441Z,-1.80
2019-01-19T07:24:38.434Z,-1.80
2019-01-19T07:27:07.613Z,-1.80
2019-01-19T07:29:36.613Z,-1.80
2019-01-19T07:32:09.016Z,-1.80
2019-01-19T07:34:38.247Z,-1.80
2019-01-19T07:37:09.940Z,-1.80
2019-01-19T07:39:38.601Z,-1.90
2019-01-19T07:42:07.612Z,-1.90
2019-01-19T07:44:36.639Z,-1.90
2019-01-19T07:47:06.610Z,-1.90
2019-01-19T07:49:36.886Z,-1.90
2019-01-19T07:52:36.097Z,-1.90
2019-01-19T07:55:06.865Z,-1.90
2019-01-19T07:57:36.982Z,-1.90
2019-01-19T08:00:19.205Z,-1.90
2019-01-19T08:02:48.469Z,-1.80
2019-01-19T08:05:17.389Z,-1.90
2019-01-19T08:07:46.548Z,-1.80
2019-01-19T08:10:16.742Z,-1.80
2019-01-19T08:12:49.966Z,-1.80
2019-01-19T08:15:25.473Z,-1.80
2019-01-19T08:17:55.178Z,-1.80
2019-01-19T08:20:27.542Z,-1.80
2019-01-19T08:22:56.947Z,-1.70
2019-01-19T08:25:29.262Z,-1.70
2019-01-19T08:28:01.483Z,-1.70
2019-01-19T08:30:31.110Z,-1.70
2019-01-19T08:33:00.385Z,-1.60
2019-01-19T08:35:33.046Z,-1.60
2019-01-19T08:38:02.007Z,-1.60
2019-01-19T08:40:33.580Z,-1.60
2019-01-19T08:43:10.475Z,-1.60
2019-01-19T08:45:39.585Z,-1.50
2019-01-19T08:48:09.091Z,-1.50
2019-01-19T08:50:38.611Z,-1.50
2019-01-19T08:53:07.885Z,-1.40
2019-01-19T08:55:36.891Z,-1.40
2019-01-19T08:58:06.195Z,-1.40
2019-01-19T09:00:35.512Z,-1.40
2019-01-19T09:03:04.531Z,-1.30
2019-01-19T09:05:33.444Z,-1.30
2019-01-19T09:08:02.748Z,-1.30
2019-01-19T09:10:31.858Z,-1.20
2019-01-19T09:13:00.777Z,-1.20
2019-01-19T09:15:30.061Z,-1.20
2019-01-19T09:17:58.996Z,-1.20
2019-01-19T09:20:39.302Z,-1.10
2019-01-19T09:23:16.747Z,-1.10
2019-01-19T09:25:45.754Z,-1.00
2019-01-19T09:28:18.531Z,-1.00
2019-01-19T09:30:49.341Z,-0.90
2019-01-19T09:33:18.737Z,-0.90
2019-01-19T09:35:48.398Z,-0.80
2019-01-19T09:38:17.302Z,-0.70
2019-01-19T09:40:49.444Z,-0.70
2019-01-19T09:43:18.639Z,-0.60
2019-01-19T09:45:47.682Z,-0.60
2019-01-19T09:48:16.658Z,-0.50
2019-01-19T09:50:51.971Z,-0.50
2019-01-19T09:53:20.982Z,-0.40
2019-01-19T09:55:53.948Z,-0.40
2019-01-19T09:58:23.220Z,-0.30
2019-01-19T10:00:52.563Z,-0.30
2019-01-19T10:03:21.568Z,-0.30
2019-01-19T10:05:50.873Z,-0.20
2019-01-19T10:08:20.110Z,-0.20
2019-01-19T10:10:49.978Z,-0.10
2019-01-19T10:13:19.424Z,-0.10
2019-01-19T10:15:48.776Z,0.00
2019-01-19T10:18:19.731Z,0.00
2019-01-19T10:20:48.665Z,0.00
2019-01-19T10:23:20.653Z,0.00
2019-01-19T10:25:49.631Z,0.10
2019-01-19T10:28:18.847Z,0.10
2019-01-19T10:30:51.528Z,0.10
2019-01-19T10:33:20.851Z,0.20
2019-01-19T10:35:49.963Z,0.20
2019-01-19T10:38:19.850Z,0.20
2019-01-19T10:40:49.717Z,0.30
2019-01-19T10:43:18.812Z,0.30
2019-01-19T10:45:47.880Z,0.40
2019-01-19T10:48:17.157Z,0.40
2019-01-19T10:50:46.175Z,0.40
2019-01-19T10:53:15.203Z,0.50
2019-01-19T10:55:44.505Z,0.50
2019-01-19T10:58:13.857Z,0.60
2019-01-19T11:00:43.187Z,0.60
2019-01-19T11:03:13.404Z,0.70
2019-01-19T11:05:42.541Z,0.80
2019-01-19T11:08:13.377Z,0.80
2019-01-19T11:10:42.408Z,0.80
2019-01-19T11:13:11.328Z,0.90
2019-01-19T11:15:40.627Z,0.90
2019-01-19T11:18:11.000Z,1.00
2019-01-19T11:20:44.564Z,1.00
2019-01-19T11:23:13.848Z,1.10
2019-01-19T11:25:43.164Z,1.10
2019-01-19T11:28:12.494Z,1.20
2019-01-19T11:30:42.806Z,1.20
2019-01-19T11:33:12.229Z,1.30
2019-01-19T11:35:41.538Z,1.40
2019-01-19T11:38:12.125Z,1.40
2019-01-19T11:40:41.281Z,1.40
2019-01-19T11:43:11.612Z,1.50
2019-01-19T11:45:40.846Z,1.50
2019-01-19T11:48:09.879Z,1.60
2019-01-19T11:50:39.709Z,1.50
2019-01-19T11:53:08.733Z,1.60
2019-01-19T11:55:37.753Z,1.70
2019-01-19T11:58:09.179Z,1.70
2019-01-19T12:00:39.642Z,1.70
2019-01-19T12:03:09.453Z,1.70
2019-01-19T12:05:39.778Z,1.80
2019-01-19T12:08:10.782Z,1.80
2019-01-19T12:10:39.731Z,1.80
2019-01-19T12:13:10.334Z,1.90
2019-01-19T12:15:39.364Z,1.90
2019-01-19T12:18:08.424Z,1.90
2019-01-19T12:21:10.822Z,1.90
2019-01-19T12:23:40.819Z,2.00
2019-01-19T12:26:10.433Z,2.00
2019-01-19T12:28:42.841Z,2.00
2019-01-19T12:31:11.896Z,2.10
2019-01-19T12:33:40.889Z,2.10
2019-01-19T12:36:10.030Z,2.20
2019-01-19T12:38:39.047Z,2.20
2019-01-19T12:41:08.260Z,2.30
2019-01-19T12:43:37.280Z,2.30
2019-01-19T12:46:09.534Z,2.40
2019-01-19T12:48:38.789Z,2.40
2019-01-19T12:51:13.210Z,2.40
2019-01-19T12:53:42.597Z,2.50
2019-01-19T12:56:11.576Z,2.50
2019-01-19T12:58:40.926Z,2.50
2019-01-19T13:01:10.234Z,2.60
2019-01-19T13:03:40.120Z,2.60
2019-01-19T13:06:36.737Z,2.50
2019-01-19T13:09:16.265Z,2.60
2019-01-19T13:12:07.377Z,2.50
2019-01-19T13:14:44.847Z,2.50
2019-01-19T13:17:53.934Z,2.60
2019-01-19T13:21:10.644Z,2.50
2019-01-19T13:24:09.641Z,2.50
2019-01-19T13:27:38.079Z,2.60
2019-01-19T13:30:57.439Z,2.60
2019-01-19T13:34:04.277Z,2.60
2019-01-19T13:37:12.368Z,2.50
2019-01-19T13:40:00.883Z,2.50
2019-01-19T13:43:12.640Z,2.50
2019-01-19T13:45:51.377Z,2.50
2019-01-19T13:48:43.517Z,2.50
2019-01-19T13:51:57.149Z,2.40
2019-01-19T13:55:10.818Z,2.40
2019-01-19T13:58:00.529Z,2.40
2019-01-19T14:01:20.848Z,2.40
2019-01-19T14:04:18.526Z,2.40
2019-01-19T14:07:11.086Z,2.40
2019-01-19T14:10:11.905Z,2.40
2019-01-19T14:13:20.911Z,2.40
2019-01-19T14:16:29.214Z,2.40
2019-01-19T14:19:33.218Z,2.30
2019-01-19T14:22:39.105Z,2.30
2019-01-19T14:26:10.577Z,2.30
2019-01-19T14:29:06.937Z,2.30
2019-01-19T14:32:19.975Z,2.30
2019-01-19T14:35:38.995Z,2.20
2019-01-19T14:38:46.586Z,2.20
2019-01-19T14:41:44.843Z,2.10
2019-01-19T14:44:31.562Z,2.20
2019-01-19T14:47:34.878Z,2.20
2019-01-19T14:50:28.286Z,2.20
2019-01-19T14:53:41.684Z,2.20
2019-01-19T14:56:48.272Z,2.10
2019-01-19T14:59:55.498Z,2.10
2019-01-19T15:03:26.840Z,2.10
2019-01-19T15:06:49.092Z,2.10
2019-01-19T15:09:41.223Z,2.00
2019-01-19T15:12:23.760Z,2.00
2019-01-19T15:15:16.703Z,1.90
2019-01-19T15:18:19.414Z,1.90
2019-01-19T15:21:24.944Z,1.90
2019-01-19T15:24:28.005Z,1.90
2019-01-19T15:27:18.701Z,1.90
2019-01-19T15:30:30.794Z,1.80
2019-01-19T15:33:45.437Z,1.80
2019-01-19T15:39:55.518Z,1.70
2019-01-19T15:43:13.083Z,1.70
2019-01-19T15:46:07.935Z,1.60
2019-01-19T15:49:20.093Z,1.60
2019-01-19T15:52:36.653Z,1.50
2019-01-19T15:56:03.361Z,1.50
2019-01-19T15:59:31.546Z,1.40
2019-01-19T16:02:39.158Z,1.40
2019-01-19T16:05:32.895Z,1.30
2019-01-19T16:08:30.437Z,1.30
2019-01-19T16:11:24.424Z,1.20
2019-01-19T16:14:01.518Z,1.20
2019-01-19T16:17:10.750Z,1.10
2019-01-19T16:20:19.909Z,1.10
2019-01-19T16:23:20.626Z,1.10
2019-01-19T16:26:23.237Z,1.00
2019-01-19T16:29:57.938Z,1.00
2019-01-19T16:33:17.508Z,1.00
2019-01-19T16:36:35.621Z,0.90
2019-01-19T16:39:52.386Z,0.90
2019-01-19T16:42:57.944Z,0.90
2019-01-19T16:46:00.091Z,0.80
2019-01-19T16:49:10.008Z,0.80
2019-01-19T16:52:06.821Z,0.80
2019-01-19T16:55:14.014Z,0.80
2019-01-19T16:58:20.597Z,0.70
2019-01-19T17:01:23.950Z,0.70
2019-01-19T17:04:28.881Z,0.70
2019-01-19T17:07:28.138Z,0.70
2019-01-19T17:10:43.828Z,0.60
2019-01-19T17:13:37.266Z,0.60
2019-01-19T17:19:56.125Z,0.60
2019-01-19T17:23:08.953Z,0.60
2019-01-19T17:26:15.853Z,0.50
2019-01-19T17:29:21.569Z,0.50
2019-01-19T17:32:24.552Z,0.40
2019-01-19T17:35:47.019Z,0.40
2019-01-19T17:38:39.131Z,0.30
2019-01-19T17:41:51.890Z,0.30
2019-01-19T17:45:07.435Z,0.30
2019-01-19T17:47:50.136Z,0.30
2019-01-19T17:51:01.469Z,0.20
2019-01-19T17:54:29.860Z,0.20
2019-01-19T17:57:36.253Z,0.10
2019-01-19T18:00:43.024Z,0.10
2019-01-19T18:03:48.410Z,0.10
2019-01-19T18:06:40.371Z,0.10
2019-01-19T18:09:53.636Z,0.10
2019-01-19T18:12:57.441Z,0.10
2019-01-19T18:16:03.309Z,0.00
2019-01-19T18:19:18.578Z,0.00
2019-01-19T18:22:53.200Z,0.00
2019-01-19T18:25:37.657Z,0.00
2019-01-19T18:28:33.738Z,-0.10
2019-01-19T18:31:28.437Z,-0.10
2019-01-19T18:34:34.286Z,-0.10
2019-01-19T18:37:25.254Z,-0.20
2019-01-19T18:40:39.927Z,-0.20
2019-01-19T18:43:33.318Z,-0.20
2019-01-19T18:46:51.027Z,-0.30
2019-01-19T18:50:01.451Z,-0.30
2019-01-19T18:53:00.682Z,-0.30
2019-01-19T18:55:55.285Z,-0.30
2019-01-19T18:59:20.659Z,-0.40
2019-01-19T19:02:24.558Z,-0.30
2019-01-19T19:05:39.592Z,-0.30
2019-01-19T19:08:33.253Z,-0.40
2019-01-19T19:11:45.461Z,-0.40
2019-01-19T19:14:42.511Z,-0.40
2019-01-19T19:17:43.965Z,-0.40
2019-01-19T19:20:35.058Z,-0.40
2019-01-19T19:23:43.760Z,-0.40
2019-01-19T19:26:26.028Z,-0.40
2019-01-19T19:29:25.173Z,-0.50
2019-01-19T19:32:25.764Z,-0.50
2019-01-19T19:35:17.927Z,-0.50
2019-01-19T19:38:06.662Z,-0.50
2019-01-19T19:41:12.599Z,-0.60
2019-01-19T19:44:15.531Z,-0.50
2019-01-19T19:47:28.736Z,-0.50
2019-01-19T19:50:29.044Z,-0.60
2019-01-19T19:52:58.107Z,-0.60
2019-01-19T19:55:25.686Z,-0.60
2019-01-19T19:57:54.866Z,-0.60
2019-01-19T20:00:24.504Z,-0.70
2019-01-19T20:02:56.636Z,-0.70
2019-01-19T20:05:26.204Z,-0.70
2019-01-19T20:07:55.287Z,-0.70
2019-01-19T20:10:24.342Z,-0.70
2019-01-19T20:12:54.690Z,-0.70
2019-01-19T20:15:24.369Z,-0.70
2019-01-19T20:17:53.324Z,-0.70
2019-01-19T20:20:22.440Z,-0.70
2019-01-19T20:22:51.662Z,-0.70
2019-01-19T20:25:20.991Z,-0.80
2019-01-19T20:27:50.590Z,-0.80
2019-01-19T20:30:19.738Z,-0.80
2019-01-19T20:32:50.490Z,-0.80
2019-01-19T20:35:19.901Z,-0.80
2019-01-19T20:37:49.195Z,-0.90
2019-01-19T20:40:24.254Z,-0.90
2019-01-19T20:42:52.055Z,-0.90
2019-01-19T20:45:21.091Z,-0.90
2019-01-19T20:47:50.373Z,-0.90
2019-01-19T20:50:21.214Z,-0.90
2019-01-19T20:52:50.195Z,-1.00
2019-01-19T20:55:19.339Z,-1.00
2019-01-19T20:57:48.718Z,-1.10
2019-01-19T21:00:18.840Z,-1.10
2019-01-19T21:02:48.282Z,-1.10
2019-01-19T21:05:17.692Z,-1.10
2019-01-19T21:07:46.998Z,-1.20
2019-01-19T21:10:21.392Z,-1.20
2019-01-19T21:12:50.408Z,-1.20
2019-01-19T21:15:19.917Z,-1.30
2019-01-19T21:17:55.629Z,-1.30
2019-01-19T21:20:20.064Z,-1.30
2019-01-19T21:22:49.785Z,-1.30
2019-01-19T21:25:18.831Z,-1.30
2019-01-19T21:27:48.362Z,-1.30
2019-01-19T21:30:19.024Z,-1.30
2019-01-19T21:32:51.249Z,-1.30
2019-01-19T21:35:21.478Z,-1.30
2019-01-19T21:37:50.898Z,-1.40
2019-01-19T21:40:20.029Z,-1.40
2019-01-19T21:42:49.356Z,-1.40
2019-01-19T21:45:19.743Z,-1.40
2019-01-19T21:47:49.820Z,-1.50
2019-01-19T21:50:20.767Z,-1.40
2019-01-19T21:52:50.116Z,-1.50
2019-01-19T21:55:21.119Z,-1.50
2019-01-19T21:57:53.843Z,-1.50
2019-01-19T22:00:32.063Z,-1.50
2019-01-19T22:05:56.933Z,-1.50
2019-01-19T22:08:29.309Z,-1.50
2019-01-19T22:11:01.792Z,-1.50
2019-01-19T22:13:31.201Z,-1.60
2019-01-19T22:16:00.250Z,-1.60
2019-01-19T22:18:31.303Z,-1.60
2019-01-19T22:21:00.735Z,-1.60
2019-01-19T22:23:32.974Z,-1.70
2019-01-19T22:26:02.104Z,-1.70
2019-01-19T22:28:33.274Z,-1.70
2019-01-19T22:31:02.805Z,-1.70
2019-01-19T22:33:32.506Z,-1.70
2019-01-19T22:36:02.134Z,-1.70
2019-01-19T22:38:31.618Z,-1.70
2019-01-19T22:41:04.182Z,-1.70
2019-01-19T22:43:34.468Z,-1.70
2019-01-19T22:46:03.639Z,-1.70
2019-01-19T22:48:32.945Z,-1.80
2019-01-19T22:51:02.099Z,-1.80
2019-01-19T22:53:31.259Z,-1.80
2019-01-19T22:56:00.614Z,-1.80
2019-01-19T22:58:29.685Z,-1.80
2019-01-19T23:01:28.885Z,-1.80
2019-01-19T23:03:58.001Z,-1.90
2019-01-19T23:06:27.366Z,-1.90
2019-01-19T23:08:56.407Z,-1.90
2019-01-19T23:11:25.577Z,-1.90
2019-01-19T23:13:54.966Z,-1.90
2019-01-19T23:16:27.091Z,-1.90
2019-01-19T23:18:56.239Z,-1.90
2019-01-19T23:21:28.270Z,-1.90
2019-01-19T23:23:58.390Z,-1.90
2019-01-19T23:26:28.529Z,-1.90
2019-01-19T23:28:57.595Z,-1.90
2019-01-19T23:31:26.936Z,-1.90
2019-01-19T23:33:56.068Z,-1.90
2019-01-19T23:39:01.551Z,-2.00
2019-01-19T23:41:31.102Z,-2.00
2019-01-19T23:44:01.383Z,-2.00
2019-01-19T23:46:31.193Z,-2.10
2019-01-19T23:49:00.213Z,-2.10
2019-01-19T23:51:30.547Z,-2.10
2019-01-19T23:53:59.526Z,-2.10
2019-01-19T23:56:32.184Z,-2.10
2019-01-19T23:59:04.719Z,-2.10
